sensor_id;sensor_type;location;lat;lon;timestamp;P1;durP1;ratioP1;P2;durP2;ratioP2
15393;SDS011;7795;47.986;11.868;2022-10-28T00:01:19;0.80;;;0.80;;
15393;SDS011;7795;47.986;11.868;2022-10-28T00:03:48;0.90;;;0.90;;
15393;SDS011;7795;47.986;11.868;2022-10-28T00:06:15;0.90;;;0.73;;
15393;SDS011;7795;47.986;11.868;2022-10-28T00:08:43;1.63;;;0.80;;
15393;SDS011;7795;47.986;11.868;2022-10-28T00:11:09;0.90;;;0.90;;
15393;SDS011;7795;47.986;11.868;2022-10-28T00:13:37;2.00;;;0.83;;
15393;SDS011;7795;47.986;11.868;2022-10-28T00:16:04;0.80;;;0.70;;
15393;SDS011;7795;47.986;11.868;2022-10-28T00:18:31;1.23;;;0.90;;
15393;SDS011;7795;47.986;11.868;2022-10-28T00:21:00;0.97;;;0.90;;
15393;SDS011;7795;47.986;11.868;2022-10-28T00:23:26;1.20;;;0.70;;
15393;SDS011;7795;47.986;11.868;2022-10-28T00:25:52;1.27;;;1.17;;
15393;SDS011;7795;47.986;11.868;2022-10-28T00:28:17;1.17;;;1.07;;
15393;SDS011;7795;47.986;11.868;2022-10-28T00:30:43;4.50;;;1.40;;
15393;SDS011;7795;47.986;11.868;2022-10-28T00:33:09;0.97;;;0.97;;
15393;SDS011;7795;47.986;11.868;2022-10-28T00:35:34;1.47;;;1.37;;
15393;SDS011;7795;47.986;11.868;2022-10-28T00:38:01;1.50;;;1.30;;
15393;SDS011;7795;47.986;11.868;2022-10-28T00:40:32;2.27;;;1.50;;
15393;SDS011;7795;47.986;11.868;2022-10-28T00:42:58;1.60;;;1.03;;
15393;SDS011;7795;47.986;11.868;2022-10-28T00:45:24;2.40;;;1.13;;
15393;SDS011;7795;47.986;11.868;2022-10-28T00:47:51;1.40;;;1.30;;
15393;SDS011;7795;47.986;11.868;2022-10-28T00:50:36;3.43;;;1.20;;
15393;SDS011;7795;47.986;11.868;2022-10-28T00:53:08;1.33;;;1.00;;
15393;SDS011;7795;47.986;11.868;2022-10-28T00:55:36;3.83;;;1.50;;
15393;SDS011;7795;47.986;11.868;2022-10-28T00:58:02;3.57;;;1.33;;
15393;SDS011;7795;47.986;11.868;2022-10-28T01:00:30;1.53;;;1.10;;
15393;SDS011;7795;47.986;11.868;2022-10-28T01:02:55;1.40;;;1.03;;
15393;SDS011;7795;47.986;11.868;2022-10-28T01:05:22;1.37;;;1.00;;
15393;SDS011;7795;47.986;11.868;2022-10-28T01:07:50;1.83;;;1.20;;
15393;SDS011;7795;47.986;11.868;2022-10-28T01:10:19;2.53;;;1.20;;
15393;SDS011;7795;47.986;11.868;2022-10-28T01:12:54;1.10;;;1.00;;
15393;SDS011;7795;47.986;11.868;2022-10-28T01:15:30;1.57;;;1.10;;
15393;SDS011;7795;47.986;11.868;2022-10-28T01:18:07;1.17;;;1.10;;
15393;SDS011;7795;47.986;11.868;2022-10-28T01:23:50;2.60;;;1.30;;
15393;SDS011;7795;47.986;11.868;2022-10-28T01:26:43;2.00;;;0.80;;
15393;SDS011;7795;47.986;11.868;2022-10-28T01:29:35;1.27;;;1.00;;
15393;SDS011;7795;47.986;11.868;2022-10-28T01:32:14;1.23;;;1.00;;
15393;SDS011;7795;47.986;11.868;2022-10-28T01:34:49;1.07;;;1.00;;
15393;SDS011;7795;47.986;11.868;2022-10-28T01:37:24;3.03;;;1.30;;
15393;SDS011;7795;47.986;11.868;2022-10-28T01:39:58;2.27;;;1.10;;
15393;SDS011;7795;47.986;11.868;2022-10-28T01:42:31;2.23;;;1.00;;
15393;SDS011;7795;47.986;11.868;2022-10-28T01:45:06;2.57;;;1.07;;
15393;SDS011;7795;47.986;11.868;2022-10-28T01:47:40;2.30;;;1.37;;
15393;SDS011;7795;47.986;11.868;2022-10-28T01:50:11;2.57;;;0.97;;
15393;SDS011;7795;47.986;11.868;2022-10-28T01:52:39;1.23;;;1.13;;
15393;SDS011;7795;47.986;11.868;2022-10-28T01:55:09;2.07;;;1.07;;
15393;SDS011;7795;47.986;11.868;2022-10-28T01:57:40;1.10;;;0.90;;
15393;SDS011;7795;47.986;11.868;2022-10-28T02:00:07;1.20;;;1.10;;
15393;SDS011;7795;47.986;11.868;2022-10-28T02:02:35;2.30;;;1.00;;
15393;SDS011;7795;47.986;11.868;2022-10-28T02:05:05;1.43;;;1.30;;
15393;SDS011;7795;47.986;11.868;2022-10-28T02:07:46;1.83;;;1.10;;
15393;SDS011;7795;47.986;11.868;2022-10-28T02:10:15;2.07;;;1.27;;
15393;SDS011;7795;47.986;11.868;2022-10-28T02:12:46;1.33;;;1.10;;
15393;SDS011;7795;47.986;11.868;2022-10-28T02:15:20;2.33;;;1.57;;
15393;SDS011;7795;47.986;11.868;2022-10-28T02:17:55;0.97;;;0.87;;
15393;SDS011;7795;47.986;11.868;2022-10-28T02:20:33;1.43;;;1.20;;
15393;SDS011;7795;47.986;11.868;2022-10-28T02:23:07;2.47;;;1.20;;
15393;SDS011;7795;47.986;11.868;2022-10-28T02:25:42;1.17;;;0.90;;
15393;SDS011;7795;47.986;11.868;2022-10-28T02:28:15;1.00;;;0.70;;
15393;SDS011;7795;47.986;11.868;2022-10-28T02:30:46;0.73;;;0.73;;
15393;SDS011;7795;47.986;11.868;2022-10-28T02:33:17;0.80;;;0.80;;
15393;SDS011;7795;47.986;11.868;2022-10-28T02:35:48;2.20;;;1.10;;
15393;SDS011;7795;47.986;11.868;2022-10-28T02:38:19;2.60;;;0.80;;
15393;SDS011;7795;47.986;11.868;2022-10-28T02:40:50;0.73;;;0.70;;
15393;SDS011;7795;47.986;11.868;2022-10-28T02:43:19;1.00;;;1.00;;
15393;SDS011;7795;47.986;11.868;2022-10-28T02:45:48;3.27;;;1.17;;
15393;SDS011;7795;47.986;11.868;2022-10-28T02:48:20;1.70;;;1.00;;
15393;SDS011;7795;47.986;11.868;2022-10-28T02:50:52;1.17;;;1.07;;
15393;SDS011;7795;47.986;11.868;2022-10-28T02:53:23;2.67;;;1.07;;
15393;SDS011;7795;47.986;11.868;2022-10-28T02:55:54;2.13;;;1.10;;
15393;SDS011;7795;47.986;11.868;2022-10-28T02:58:23;1.80;;;1.00;;
15393;SDS011;7795;47.986;11.868;2022-10-28T03:00:49;1.40;;;1.10;;
15393;SDS011;7795;47.986;11.868;2022-10-28T03:03:15;2.00;;;0.87;;
15393;SDS011;7795;47.986;11.868;2022-10-28T03:05:41;1.27;;;1.03;;
15393;SDS011;7795;47.986;11.868;2022-10-28T03:08:09;1.23;;;0.90;;
15393;SDS011;7795;47.986;11.868;2022-10-28T03:10:34;1.40;;;0.93;;
15393;SDS011;7795;47.986;11.868;2022-10-28T03:13:00;1.00;;;0.90;;
15393;SDS011;7795;47.986;11.868;2022-10-28T03:15:26;0.80;;;0.80;;
15393;SDS011;7795;47.986;11.868;2022-10-28T03:17:51;0.83;;;0.83;;
15393;SDS011;7795;47.986;11.868;2022-10-28T03:20:17;1.60;;;0.80;;
15393;SDS011;7795;47.986;11.868;2022-10-28T03:22:43;1.73;;;1.40;;
15393;SDS011;7795;47.986;11.868;2022-10-28T03:25:10;1.80;;;0.97;;
15393;SDS011;7795;47.986;11.868;2022-10-28T03:27:37;2.10;;;1.10;;
15393;SDS011;7795;47.986;11.868;2022-10-28T03:30:04;2.07;;;1.20;;
15393;SDS011;7795;47.986;11.868;2022-10-28T03:32:30;1.50;;;0.87;;
15393;SDS011;7795;47.986;11.868;2022-10-28T03:34:56;5.43;;;1.60;;
15393;SDS011;7795;47.986;11.868;2022-10-28T03:37:22;1.10;;;0.90;;
15393;SDS011;7795;47.986;11.868;2022-10-28T03:39:47;1.70;;;1.00;;
15393;SDS011;7795;47.986;11.868;2022-10-28T03:42:15;1.17;;;1.07;;
15393;SDS011;7795;47.986;11.868;2022-10-28T03:44:40;1.80;;;0.93;;
15393;SDS011;7795;47.986;11.868;2022-10-28T03:47:06;1.07;;;0.90;;
15393;SDS011;7795;47.986;11.868;2022-10-28T03:49:32;3.03;;;1.30;;
15393;SDS011;7795;47.986;11.868;2022-10-28T03:51:57;2.17;;;1.03;;
15393;SDS011;7795;47.986;11.868;2022-10-28T03:54:23;2.10;;;1.00;;
15393;SDS011;7795;47.986;11.868;2022-10-28T03:56:49;0.87;;;0.83;;
15393;SDS011;7795;47.986;11.868;2022-10-28T03:59:16;4.13;;;1.20;;
15393;SDS011;7795;47.986;11.868;2022-10-28T04:01:41;0.90;;;0.70;;
15393;SDS011;7795;47.986;11.868;2022-10-28T04:04:07;2.27;;;0.87;;
15393;SDS011;7795;47.986;11.868;2022-10-28T04:06:33;1.10;;;1.00;;
15393;SDS011;7795;47.986;11.868;2022-10-28T04:08:58;1.37;;;1.17;;
15393;SDS011;7795;47.986;11.868;2022-10-28T04:11:24;1.10;;;0.90;;
15393;SDS011;7795;47.986;11.868;2022-10-28T04:13:50;0.70;;;0.70;;
15393;SDS011;7795;47.986;11.868;2022-10-28T04:16:17;1.17;;;1.07;;
15393;SDS011;7795;47.986;11.868;2022-10-28T04:18:43;1.43;;;1.00;;
15393;SDS011;7795;47.986;11.868;2022-10-28T04:21:08;2.67;;;1.73;;
15393;SDS011;7795;47.986;11.868;2022-10-28T04:23:34;1.23;;;0.80;;
15393;SDS011;7795;47.986;11.868;2022-10-28T04:26:00;2.50;;;1.00;;
15393;SDS011;7795;47.986;11.868;2022-10-28T04:28:26;3.93;;;1.50;;
15393;SDS011;7795;47.986;11.868;2022-10-28T04:30:51;2.47;;;1.40;;
15393;SDS011;7795;47.986;11.868;2022-10-28T04:33:19;3.17;;;1.20;;
15393;SDS011;7795;47.986;11.868;2022-10-28T04:35:44;3.63;;;1.07;;
15393;SDS011;7795;47.986;11.868;2022-10-28T04:38:10;3.60;;;1.20;;
15393;SDS011;7795;47.986;11.868;2022-10-28T04:40:37;2.97;;;1.27;;
15393;SDS011;7795;47.986;11.868;2022-10-28T04:43:03;3.53;;;1.40;;
15393;SDS011;7795;47.986;11.868;2022-10-28T04:45:29;3.03;;;1.10;;
15393;SDS011;7795;47.986;11.868;2022-10-28T04:47:55;1.40;;;1.00;;
15393;SDS011;7795;47.986;11.868;2022-10-28T04:50:23;2.33;;;0.93;;
15393;SDS011;7795;47.986;11.868;2022-10-28T04:52:48;2.93;;;1.50;;
15393;SDS011;7795;47.986;11.868;2022-10-28T04:55:14;1.43;;;1.20;;
15393;SDS011;7795;47.986;11.868;2022-10-28T04:57:40;1.67;;;1.03;;
15393;SDS011;7795;47.986;11.868;2022-10-28T05:00:06;2.07;;;1.60;;
15393;SDS011;7795;47.986;11.868;2022-10-28T05:02:33;2.63;;;1.80;;
15393;SDS011;7795;47.986;11.868;2022-10-28T05:04:59;7.17;;;2.63;;
15393;SDS011;7795;47.986;11.868;2022-10-28T05:07:28;3.27;;;1.43;;
15393;SDS011;7795;47.986;11.868;2022-10-28T05:09:54;3.90;;;1.57;;
15393;SDS011;7795;47.986;11.868;2022-10-28T05:12:20;5.13;;;1.90;;
15393;SDS011;7795;47.986;11.868;2022-10-28T05:14:46;3.90;;;1.93;;
15393;SDS011;7795;47.986;11.868;2022-10-28T05:17:11;2.30;;;2.03;;
15393;SDS011;7795;47.986;11.868;2022-10-28T05:19:37;6.70;;;2.50;;
15393;SDS011;7795;47.986;11.868;2022-10-28T05:22:03;5.10;;;3.17;;
15393;SDS011;7795;47.986;11.868;2022-10-28T05:24:30;4.47;;;3.30;;
15393;SDS011;7795;47.986;11.868;2022-10-28T05:26:57;4.93;;;3.70;;
15393;SDS011;7795;47.986;11.868;2022-10-28T05:29:23;4.47;;;3.43;;
15393;SDS011;7795;47.986;11.868;2022-10-28T05:31:49;4.70;;;3.33;;
15393;SDS011;7795;47.986;11.868;2022-10-28T05:34:14;7.23;;;4.73;;
15393;SDS011;7795;47.986;11.868;2022-10-28T05:36:40;8.73;;;7.33;;
15393;SDS011;7795;47.986;11.868;2022-10-28T05:39:06;12.17;;;9.03;;
15393;SDS011;7795;47.986;11.868;2022-10-28T05:41:33;12.33;;;10.10;;
15393;SDS011;7795;47.986;11.868;2022-10-28T05:43:58;13.73;;;11.37;;
15393;SDS011;7795;47.986;11.868;2022-10-28T05:46:24;17.07;;;13.63;;
15393;SDS011;7795;47.986;11.868;2022-10-28T05:48:50;15.70;;;13.73;;
15393;SDS011;7795;47.986;11.868;2022-10-28T05:51:16;16.00;;;13.60;;
15393;SDS011;7795;47.986;11.868;2022-10-28T05:53:41;13.70;;;11.13;;
15393;SDS011;7795;47.986;11.868;2022-10-28T05:56:08;7.63;;;6.83;;
15393;SDS011;7795;47.986;11.868;2022-10-28T05:58:35;12.13;;;8.80;;
15393;SDS011;7795;47.986;11.868;2022-10-28T06:01:04;6.93;;;5.93;;
15393;SDS011;7795;47.986;11.868;2022-10-28T06:03:30;7.87;;;5.43;;
15393;SDS011;7795;47.986;11.868;2022-10-28T06:05:56;7.10;;;5.43;;
15393;SDS011;7795;47.986;11.868;2022-10-28T06:08:22;7.63;;;6.27;;
15393;SDS011;7795;47.986;11.868;2022-10-28T06:10:48;8.63;;;6.00;;
15393;SDS011;7795;47.986;11.868;2022-10-28T06:13:15;6.43;;;5.50;;
15393;SDS011;7795;47.986;11.868;2022-10-28T06:15:42;6.87;;;5.37;;
15393;SDS011;7795;47.986;11.868;2022-10-28T06:18:08;11.93;;;5.60;;
15393;SDS011;7795;47.986;11.868;2022-10-28T06:20:33;5.53;;;4.37;;
15393;SDS011;7795;47.986;11.868;2022-10-28T06:22:59;5.73;;;3.93;;
15393;SDS011;7795;47.986;11.868;2022-10-28T06:25:25;5.60;;;3.70;;
15393;SDS011;7795;47.986;11.868;2022-10-28T06:27:51;5.53;;;3.47;;
15393;SDS011;7795;47.986;11.868;2022-10-28T06:30:18;3.60;;;2.83;;
15393;SDS011;7795;47.986;11.868;2022-10-28T06:32:45;5.27;;;4.00;;
15393;SDS011;7795;47.986;11.868;2022-10-28T06:35:10;6.33;;;4.20;;
15393;SDS011;7795;47.986;11.868;2022-10-28T06:37:36;10.03;;;4.23;;
15393;SDS011;7795;47.986;11.868;2022-10-28T06:40:02;8.80;;;4.27;;
15393;SDS011;7795;47.986;11.868;2022-10-28T06:42:28;7.00;;;4.10;;
15393;SDS011;7795;47.986;11.868;2022-10-28T06:44:54;4.57;;;3.60;;
15393;SDS011;7795;47.986;11.868;2022-10-28T06:47:20;5.40;;;3.50;;
15393;SDS011;7795;47.986;11.868;2022-10-28T06:49:47;4.13;;;3.70;;
15393;SDS011;7795;47.986;11.868;2022-10-28T06:52:13;6.87;;;4.27;;
15393;SDS011;7795;47.986;11.868;2022-10-28T06:54:39;4.60;;;3.67;;
15393;SDS011;7795;47.986;11.868;2022-10-28T06:57:04;4.13;;;3.73;;
15393;SDS011;7795;47.986;11.868;2022-10-28T06:59:30;4.43;;;3.00;;
15393;SDS011;7795;47.986;11.868;2022-10-28T07:01:56;5.80;;;3.00;;
15393;SDS011;7795;47.986;11.868;2022-10-28T07:04:22;3.73;;;3.03;;
15393;SDS011;7795;47.986;11.868;2022-10-28T07:06:53;4.50;;;3.00;;
15393;SDS011;7795;47.986;11.868;2022-10-28T07:09:19;3.37;;;2.97;;
15393;SDS011;7795;47.986;11.868;2022-10-28T07:11:46;3.17;;;2.60;;
15393;SDS011;7795;47.986;11.868;2022-10-28T07:14:12;8.00;;;3.07;;
15393;SDS011;7795;47.986;11.868;2022-10-28T07:16:38;3.50;;;2.50;;
15393;SDS011;7795;47.986;11.868;2022-10-28T07:19:04;2.90;;;2.60;;
15393;SDS011;7795;47.986;11.868;2022-10-28T07:21:29;6.07;;;4.13;;
15393;SDS011;7795;47.986;11.868;2022-10-28T07:23:56;4.67;;;2.80;;
15393;SDS011;7795;47.986;11.868;2022-10-28T07:26:22;3.37;;;2.77;;
15393;SDS011;7795;47.986;11.868;2022-10-28T07:28:48;4.60;;;2.63;;
15393;SDS011;7795;47.986;11.868;2022-10-28T07:31:15;5.90;;;2.70;;
15393;SDS011;7795;47.986;11.868;2022-10-28T07:33:41;4.20;;;2.83;;
15393;SDS011;7795;47.986;11.868;2022-10-28T07:36:07;11.13;;;2.97;;
15393;SDS011;7795;47.986;11.868;2022-10-28T07:38:33;3.63;;;2.53;;
15393;SDS011;7795;47.986;11.868;2022-10-28T07:41:03;4.97;;;3.33;;
15393;SDS011;7795;47.986;11.868;2022-10-28T07:43:30;3.17;;;2.60;;
15393;SDS011;7795;47.986;11.868;2022-10-28T07:45:56;3.60;;;2.40;;
15393;SDS011;7795;47.986;11.868;2022-10-28T07:48:22;3.40;;;2.10;;
15393;SDS011;7795;47.986;11.868;2022-10-28T07:50:47;3.57;;;2.17;;
15393;SDS011;7795;47.986;11.868;2022-10-28T07:53:13;4.60;;;2.57;;
15393;SDS011;7795;47.986;11.868;2022-10-28T07:55:39;4.80;;;2.93;;
15393;SDS011;7795;47.986;11.868;2022-10-28T07:58:06;10.00;;;3.50;;
15393;SDS011;7795;47.986;11.868;2022-10-28T08:00:32;4.80;;;2.50;;
15393;SDS011;7795;47.986;11.868;2022-10-28T08:02:57;5.67;;;2.67;;
15393;SDS011;7795;47.986;11.868;2022-10-28T08:05:23;5.07;;;2.70;;
15393;SDS011;7795;47.986;11.868;2022-10-28T08:07:49;4.50;;;2.30;;
15393;SDS011;7795;47.986;11.868;2022-10-28T08:10:15;6.50;;;2.57;;
15393;SDS011;7795;47.986;11.868;2022-10-28T08:12:41;6.33;;;2.50;;
15393;SDS011;7795;47.986;11.868;2022-10-28T08:15:08;5.13;;;2.30;;
15393;SDS011;7795;47.986;11.868;2022-10-28T08:17:34;7.70;;;2.93;;
15393;SDS011;7795;47.986;11.868;2022-10-28T08:20:00;4.83;;;2.70;;
15393;SDS011;7795;47.986;11.868;2022-10-28T08:22:26;5.83;;;2.33;;
15393;SDS011;7795;47.986;11.868;2022-10-28T08:24:51;9.60;;;2.73;;
15393;SDS011;7795;47.986;11.868;2022-10-28T08:27:17;5.70;;;3.00;;
15393;SDS011;7795;47.986;11.868;2022-10-28T08:29:43;8.10;;;3.00;;
15393;SDS011;7795;47.986;11.868;2022-10-28T08:32:10;7.20;;;3.23;;
15393;SDS011;7795;47.986;11.868;2022-10-28T08:34:36;5.47;;;2.80;;
15393;SDS011;7795;47.986;11.868;2022-10-28T08:37:01;3.97;;;2.80;;
15393;SDS011;7795;47.986;11.868;2022-10-28T08:39:27;7.10;;;3.30;;
15393;SDS011;7795;47.986;11.868;2022-10-28T08:41:54;10.43;;;3.10;;
15393;SDS011;7795;47.986;11.868;2022-10-28T08:47:22;8.00;;;3.50;;
15393;SDS011;7795;47.986;11.868;2022-10-28T08:50:01;7.10;;;3.43;;
15393;SDS011;7795;47.986;11.868;2022-10-28T08:52:34;6.83;;;2.73;;
15393;SDS011;7795;47.986;11.868;2022-10-28T08:55:06;6.20;;;2.73;;
15393;SDS011;7795;47.986;11.868;2022-10-28T08:57:39;8.70;;;4.10;;
15393;SDS011;7795;47.986;11.868;2022-10-28T09:00:12;6.23;;;2.80;;
15393;SDS011;7795;47.986;11.868;2022-10-28T09:02:47;5.50;;;3.03;;
15393;SDS011;7795;47.986;11.868;2022-10-28T09:05:20;3.00;;;2.57;;
15393;SDS011;7795;47.986;11.868;2022-10-28T09:07:46;6.93;;;3.10;;
15393;SDS011;7795;47.986;11.868;2022-10-28T09:10:13;5.63;;;2.80;;
15393;SDS011;7795;47.986;11.868;2022-10-28T09:12:42;5.80;;;2.87;;
15393;SDS011;7795;47.986;11.868;2022-10-28T09:15:17;2.70;;;2.10;;
15393;SDS011;7795;47.986;11.868;2022-10-28T09:17:53;4.47;;;2.40;;
15393;SDS011;7795;47.986;11.868;2022-10-28T09:20:22;3.57;;;2.10;;
15393;SDS011;7795;47.986;11.868;2022-10-28T09:22:55;5.67;;;2.20;;
15393;SDS011;7795;47.986;11.868;2022-10-28T09:25:24;3.07;;;1.67;;
15393;SDS011;7795;47.986;11.868;2022-10-28T09:28:05;7.67;;;2.27;;
15393;SDS011;7795;47.986;11.868;2022-10-28T09:30:45;5.40;;;1.80;;
15393;SDS011;7795;47.986;11.868;2022-10-28T09:33:20;8.40;;;2.40;;
15393;SDS011;7795;47.986;11.868;2022-10-28T09:36:12;5.87;;;2.00;;
15393;SDS011;7795;47.986;11.868;2022-10-28T09:38:43;3.43;;;2.03;;
15393;SDS011;7795;47.986;11.868;2022-10-28T09:41:10;5.70;;;2.17;;
15393;SDS011;7795;47.986;11.868;2022-10-28T09:43:41;5.00;;;2.13;;
15393;SDS011;7795;47.986;11.868;2022-10-28T09:46:12;3.47;;;1.53;;
15393;SDS011;7795;47.986;11.868;2022-10-28T09:48:42;4.20;;;1.70;;
15393;SDS011;7795;47.986;11.868;2022-10-28T09:51:14;5.23;;;1.70;;
15393;SDS011;7795;47.986;11.868;2022-10-28T09:53:49;4.70;;;1.50;;
15393;SDS011;7795;47.986;11.868;2022-10-28T09:56:17;4.90;;;1.50;;
15393;SDS011;7795;47.986;11.868;2022-10-28T09:58:44;2.40;;;1.80;;
15393;SDS011;7795;47.986;11.868;2022-10-28T10:01:11;3.70;;;1.80;;
15393;SDS011;7795;47.986;11.868;2022-10-28T10:03:38;4.13;;;1.43;;
15393;SDS011;7795;47.986;11.868;2022-10-28T10:06:08;5.07;;;1.90;;
15393;SDS011;7795;47.986;11.868;2022-10-28T10:08:38;3.70;;;1.40;;
15393;SDS011;7795;47.986;11.868;2022-10-28T10:11:06;3.93;;;1.50;;
15393;SDS011;7795;47.986;11.868;2022-10-28T10:13:50;2.60;;;1.00;;
15393;SDS011;7795;47.986;11.868;2022-10-28T10:16:18;3.63;;;1.57;;
15393;SDS011;7795;47.986;11.868;2022-10-28T10:18:50;2.47;;;1.50;;
15393;SDS011;7795;47.986;11.868;2022-10-28T10:21:26;4.97;;;1.50;;
15393;SDS011;7795;47.986;11.868;2022-10-28T10:24:18;3.20;;;0.97;;
15393;SDS011;7795;47.986;11.868;2022-10-28T10:26:46;3.23;;;1.37;;
15393;SDS011;7795;47.986;11.868;2022-10-28T10:29:11;3.73;;;1.47;;
15393;SDS011;7795;47.986;11.868;2022-10-28T10:31:38;4.27;;;1.30;;
15393;SDS011;7795;47.986;11.868;2022-10-28T10:34:04;4.07;;;1.57;;
15393;SDS011;7795;47.986;11.868;2022-10-28T10:36:32;3.17;;;1.37;;
15393;SDS011;7795;47.986;11.868;2022-10-28T10:38:59;2.17;;;0.90;;
15393;SDS011;7795;47.986;11.868;2022-10-28T10:41:33;3.37;;;1.57;;
15393;SDS011;7795;47.986;11.868;2022-10-28T10:43:59;6.57;;;1.70;;
15393;SDS011;7795;47.986;11.868;2022-10-28T10:46:25;4.43;;;1.60;;
15393;SDS011;7795;47.986;11.868;2022-10-28T10:49:04;6.17;;;2.10;;
15393;SDS011;7795;47.986;11.868;2022-10-28T10:51:36;2.20;;;1.20;;
15393;SDS011;7795;47.986;11.868;2022-10-28T10:54:05;4.47;;;2.10;;
15393;SDS011;7795;47.986;11.868;2022-10-28T10:56:38;4.10;;;1.30;;
15393;SDS011;7795;47.986;11.868;2022-10-28T10:59:04;2.77;;;1.30;;
15393;SDS011;7795;47.986;11.868;2022-10-28T11:01:40;2.57;;;1.17;;
15393;SDS011;7795;47.986;11.868;2022-10-28T11:04:06;3.07;;;1.50;;
15393;SDS011;7795;47.986;11.868;2022-10-28T11:06:40;1.53;;;1.10;;
15393;SDS011;7795;47.986;11.868;2022-10-28T11:09:16;2.33;;;1.10;;
15393;SDS011;7795;47.986;11.868;2022-10-28T11:11:44;3.20;;;1.00;;
15393;SDS011;7795;47.986;11.868;2022-10-28T11:14:17;2.80;;;1.70;;
15393;SDS011;7795;47.986;11.868;2022-10-28T11:16:46;2.87;;;1.27;;
15393;SDS011;7795;47.986;11.868;2022-10-28T11:19:14;3.53;;;1.87;;
15393;SDS011;7795;47.986;11.868;2022-10-28T11:21:49;3.03;;;1.30;;
15393;SDS011;7795;47.986;11.868;2022-10-28T11:24:29;7.33;;;1.77;;
15393;SDS011;7795;47.986;11.868;2022-10-28T11:27:06;8.13;;;1.87;;
15393;SDS011;7795;47.986;11.868;2022-10-28T11:29:39;2.77;;;1.43;;
15393;SDS011;7795;47.986;11.868;2022-10-28T11:32:07;5.77;;;1.63;;
15393;SDS011;7795;47.986;11.868;2022-10-28T11:34:45;5.07;;;1.43;;
15393;SDS011;7795;47.986;11.868;2022-10-28T11:37:32;4.03;;;1.50;;
15393;SDS011;7795;47.986;11.868;2022-10-28T11:40:13;1.90;;;1.30;;
15393;SDS011;7795;47.986;11.868;2022-10-28T11:42:55;3.73;;;1.33;;
15393;SDS011;7795;47.986;11.868;2022-10-28T11:45:33;3.57;;;1.93;;
15393;SDS011;7795;47.986;11.868;2022-10-28T11:48:09;3.97;;;1.70;;
15393;SDS011;7795;47.986;11.868;2022-10-28T11:50:51;4.23;;;1.53;;
15393;SDS011;7795;47.986;11.868;2022-10-28T11:53:38;3.53;;;1.40;;
15393;SDS011;7795;47.986;11.868;2022-10-28T11:56:30;3.20;;;1.47;;
15393;SDS011;7795;47.986;11.868;2022-10-28T11:59:04;4.20;;;1.20;;
15393;SDS011;7795;47.986;11.868;2022-10-28T12:01:49;2.17;;;1.17;;
15393;SDS011;7795;47.986;11.868;2022-10-28T12:04:21;2.97;;;1.30;;
15393;SDS011;7795;47.986;11.868;2022-10-28T12:06:59;2.43;;;1.03;;
15393;SDS011;7795;47.986;11.868;2022-10-28T12:09:40;2.10;;;1.20;;
15393;SDS011;7795;47.986;11.868;2022-10-28T12:12:14;3.73;;;1.20;;
15393;SDS011;7795;47.986;11.868;2022-10-28T12:14:48;9.20;;;1.60;;
15393;SDS011;7795;47.986;11.868;2022-10-28T12:17:21;2.27;;;1.40;;
15393;SDS011;7795;47.986;11.868;2022-10-28T12:19:55;3.57;;;1.20;;
15393;SDS011;7795;47.986;11.868;2022-10-28T12:22:25;2.07;;;1.03;;
15393;SDS011;7795;47.986;11.868;2022-10-28T12:24:55;2.87;;;1.30;;
15393;SDS011;7795;47.986;11.868;2022-10-28T12:27:26;1.20;;;1.10;;
15393;SDS011;7795;47.986;11.868;2022-10-28T12:29:56;3.20;;;1.10;;
15393;SDS011;7795;47.986;11.868;2022-10-28T12:32:26;1.23;;;0.93;;
15393;SDS011;7795;47.986;11.868;2022-10-28T12:34:54;4.17;;;1.43;;
15393;SDS011;7795;47.986;11.868;2022-10-28T12:37:27;2.60;;;0.80;;
15393;SDS011;7795;47.986;11.868;2022-10-28T12:40:00;4.33;;;1.20;;
15393;SDS011;7795;47.986;11.868;2022-10-28T12:42:32;2.97;;;1.10;;
15393;SDS011;7795;47.986;11.868;2022-10-28T12:45:02;2.33;;;1.30;;
15393;SDS011;7795;47.986;11.868;2022-10-28T12:47:36;1.90;;;1.00;;
15393;SDS011;7795;47.986;11.868;2022-10-28T12:50:08;2.97;;;1.43;;
15393;SDS011;7795;47.986;11.868;2022-10-28T12:52:43;4.43;;;1.63;;
15393;SDS011;7795;47.986;11.868;2022-10-28T12:55:23;3.50;;;1.57;;
15393;SDS011;7795;47.986;11.868;2022-10-28T12:57:53;4.40;;;1.60;;
15393;SDS011;7795;47.986;11.868;2022-10-28T13:00:25;5.40;;;2.30;;
15393;SDS011;7795;47.986;11.868;2022-10-28T13:02:58;8.03;;;2.60;;
15393;SDS011;7795;47.986;11.868;2022-10-28T13:05:27;7.53;;;2.10;;
15393;SDS011;7795;47.986;11.868;2022-10-28T13:08:03;4.60;;;1.40;;
15393;SDS011;7795;47.986;11.868;2022-10-28T13:11:11;3.97;;;1.43;;
15393;SDS011;7795;47.986;11.868;2022-10-28T13:13:56;3.97;;;1.50;;
15393;SDS011;7795;47.986;11.868;2022-10-28T13:16:44;3.13;;;1.27;;
15393;SDS011;7795;47.986;11.868;2022-10-28T13:19:28;2.73;;;1.30;;
15393;SDS011;7795;47.986;11.868;2022-10-28T13:25:19;4.80;;;1.70;;
15393;SDS011;7795;47.986;11.868;2022-10-28T13:28:05;5.03;;;1.47;;
15393;SDS011;7795;47.986;11.868;2022-10-28T13:30:38;4.30;;;1.13;;
15393;SDS011;7795;47.986;11.868;2022-10-28T13:33:19;1.75;;;1.00;;
15393;SDS011;7795;47.986;11.868;2022-10-28T13:35:47;4.27;;;1.67;;
15393;SDS011;7795;47.986;11.868;2022-10-28T13:38:14;7.60;;;1.52;;
15393;SDS011;7795;47.986;11.868;2022-10-28T13:41:06;2.37;;;1.27;;
15393;SDS011;7795;47.986;11.868;2022-10-28T13:56:10;5.87;;;1.27;;
15393;SDS011;7795;47.986;11.868;2022-10-28T13:58:50;5.60;;;1.63;;
15393;SDS011;7795;47.986;11.868;2022-10-28T14:07:03;3.20;;;1.33;;
15393;SDS011;7795;47.986;11.868;2022-10-28T14:09:40;4.70;;;1.20;;
15393;SDS011;7795;47.986;11.868;2022-10-28T14:15:04;4.67;;;1.10;;
15393;SDS011;7795;47.986;11.868;2022-10-28T14:17:46;7.03;;;1.52;;
15393;SDS011;7795;47.986;11.868;2022-10-28T14:20:23;8.83;;;1.67;;
15393;SDS011;7795;47.986;11.868;2022-10-28T14:22:59;5.67;;;1.30;;
15393;SDS011;7795;47.986;11.868;2022-10-28T14:31:31;4.47;;;0.87;;
15393;SDS011;7795;47.986;11.868;2022-10-28T14:40:23;6.40;;;1.47;;
15393;SDS011;7795;47.986;11.868;2022-10-28T14:42:59;4.30;;;1.20;;
15393;SDS011;7795;47.986;11.868;2022-10-28T14:45:38;4.30;;;1.20;;
15393;SDS011;7795;47.986;11.868;2022-10-28T14:51:16;3.00;;;1.00;;
15393;SDS011;7795;47.986;11.868;2022-10-28T14:53:44;5.10;;;1.33;;
15393;SDS011;7795;47.986;11.868;2022-10-28T14:56:15;3.77;;;1.20;;
15393;SDS011;7795;47.986;11.868;2022-10-28T14:58:48;4.77;;;1.27;;
15393;SDS011;7795;47.986;11.868;2022-10-28T15:01:19;2.57;;;1.10;;
15393;SDS011;7795;47.986;11.868;2022-10-28T15:03:49;6.20;;;1.63;;
15393;SDS011;7795;47.986;11.868;2022-10-28T15:06:23;3.27;;;1.40;;
15393;SDS011;7795;47.986;11.868;2022-10-28T15:09:02;1.63;;;0.90;;
15393;SDS011;7795;47.986;11.868;2022-10-28T15:11:32;8.57;;;1.33;;
15393;SDS011;7795;47.986;11.868;2022-10-28T15:14:10;1.93;;;1.10;;
15393;SDS011;7795;47.986;11.868;2022-10-28T15:16:44;1.53;;;1.00;;
15393;SDS011;7795;47.986;11.868;2022-10-28T15:19:11;3.40;;;1.20;;
15393;SDS011;7795;47.986;11.868;2022-10-28T15:21:38;8.47;;;1.27;;
15393;SDS011;7795;47.986;11.868;2022-10-28T15:24:04;3.13;;;1.10;;
15393;SDS011;7795;47.986;11.868;2022-10-28T15:26:34;2.00;;;0.93;;
15393;SDS011;7795;47.986;11.868;2022-10-28T15:29:00;1.80;;;1.10;;
15393;SDS011;7795;47.986;11.868;2022-10-28T15:31:26;4.03;;;1.30;;
15393;SDS011;7795;47.986;11.868;2022-10-28T15:33:51;4.47;;;1.20;;
15393;SDS011;7795;47.986;11.868;2022-10-28T15:36:18;3.70;;;1.30;;
15393;SDS011;7795;47.986;11.868;2022-10-28T15:38:46;2.20;;;1.00;;
15393;SDS011;7795;47.986;11.868;2022-10-28T15:44:07;4.20;;;1.30;;
15393;SDS011;7795;47.986;11.868;2022-10-28T15:46:50;4.33;;;1.53;;
15393;SDS011;7795;47.986;11.868;2022-10-28T15:49:28;4.37;;;1.43;;
15393;SDS011;7795;47.986;11.868;2022-10-28T15:54:58;5.00;;;1.40;;
15393;SDS011;7795;47.986;11.868;2022-10-28T15:57:27;3.87;;;1.67;;